ブルネイ国際空港の過去48時間の天気

ブルネイ国際空港 (Brunei Airport)

現在時刻: 9/16 23:10 +08 (9/16 15:10 UTC) 以下の時間は現地時間です。

過去48時間のMETAR気象情報
時間 風向 風速(m/s) 視程 気温(℃) 湿度(%) 気圧(hPa) 天気現象
16 22:30 南南東 1 3000m 28 70 1010 煙霧
16 22:00 南南西 1 3000m 28 70 1010 煙霧
16 21:30 西南西 1 3000m 28 74 1010 煙霧
16 21:00 西 1 3000m 29 70 1010 煙霧
16 20:30 西北西 1 3000m 29 70 1009 煙霧
16 20:00 西南西 1 3000m 29 70 1009 煙霧
16 19:30 北北西 1 3000m 29 66 1009 煙霧
16 19:00 北北西 1 3000m 30 66 1008 煙霧
16 18:30 1 3000m 30 75 1008 煙霧
16 18:00 北西 2 3000m 30 66 1008 煙霧
16 17:30 北西 2 3000m 31 62 1007 煙霧
16 17:00 3 3000m 32 59 1007 煙霧
16 16:30 北北西 3 4000m 32 56 1007 煙霧
16 16:00 西北西 3 4000m 33 49 1007 煙霧
16 15:30 西北西 3 4000m 33 53 1007 煙霧
16 15:00 南南西 2 4000m 34 47 1007 煙霧
16 14:30 西 3 4000m 34 50 1008 煙霧
16 14:00 西南西 2 4000m 35 47 1008 煙霧
16 13:30 西 2 4000m 34 53 1008 煙霧
16 13:00 西 2 3000m 34 39 1009 煙霧
16 12:30 南西 3 3000m 34 44 1010 煙霧
16 12:00 3 2000m 33 53 1010 煙霧
16 11:30 南南西 2 2000m 31 70 1011 煙霧
16 11:00 南南東 2 2000m 31 75 1011 煙霧
16 10:30 南南西 2 2000m 30 79 1011 煙霧
16 10:00 2 2000m 29 79 1011 煙霧
16 09:30 3 2000m 28 84 1011 煙霧
16 09:00 3 1500m 27 89 1011 煙霧
16 08:30 2 1000m 26 94 1011 煙霧
16 08:00 南南西 2 1000m 26 94 1011 煙霧
16 07:30 南南西 2 1000m 25 94 1011 煙霧
16 07:00 南西 2 1000m 25 100 1011 煙霧
16 06:30 南西 2 1000m 26 100 1010 煙霧
16 06:00 西南西 1 2000m 26 100 1010 煙霧
16 05:30 南西 1 2000m 26 100 1010 煙霧
16 05:00 南西 1 2000m 27 94 - 煙霧
16 04:30 西南西 1 2000m 27 94 1010 煙霧
16 04:00 南南西 1 2000m 27 94 1010 煙霧
16 03:30 南南西 2 2000m 27 94 1010 煙霧
16 03:00 南南西 2 2000m 27 94 1010 煙霧
16 02:30 西南西 1 2000m 27 89 1010 煙霧
16 02:00 南西 1 2000m 27 89 1010 煙霧
16 01:30 南西 1 2000m 28 89 1010 煙霧
16 01:00 西 1 2000m 28 89 1011 煙霧
16 00:30 南西 1 2000m 28 89 1011 煙霧
16 00:00 西南西 1 2000m 28 89 1011 煙霧
15 23:30 南西 1 2000m 28 89 1011 煙霧
15 23:00 西南西 1 2000m 29 84 1011 煙霧
15 22:30 南西 1 2000m 29 84 1011 煙霧
15 22:00 南西 1 2000m 29 84 1011 煙霧
15 21:30 南西 1 2000m 29 84 1011 煙霧
15 21:00 南西 1 2000m 29 79 1011 煙霧
15 20:30 南西 1 2000m 29 79 1010 煙霧
15 20:00 西南西 1 2000m 29 79 1010 煙霧
15 19:30 西 1 2000m 29 79 1010 煙霧
15 19:00 西 1 2000m 29 79 1009 煙霧
15 18:30 西 2 2000m 30 75 1009 煙霧
15 18:00 西 3 2000m 30 75 1009 煙霧
15 17:30 西 3 2000m 31 66 1008 煙霧
15 17:00 西 3 2000m 31 66 1008 煙霧
15 16:30 西南西 3 2000m 31 70 1008 煙霧
15 16:00 西南西 3 2000m 32 67 1008 煙霧
15 15:30 西 3 2000m 32 63 1008 煙霧
15 15:00 西 3 2000m 32 63 1008 煙霧
15 14:30 南西 3 2000m 33 63 1008 煙霧
15 14:00 東南東 2 2000m 34 60 1008 煙霧
15 13:30 北西 2 2000m 32 63 1009 煙霧
15 13:00 南東 3 2000m 32 67 1009 煙霧
15 12:30 2 2000m 32 63 1010 煙霧
15 12:00 南西 2 2000m 32 63 1010 煙霧
15 11:30 西 2 2000m 31 70 1011 煙霧
15 11:00 南南西 2 2000m 31 70 1011 煙霧
15 10:30 南南西 3 2000m 31 75 1011 煙霧
15 10:00 南西 2 2000m 29 79 1012 煙霧
15 09:30 南西 1 2000m 28 89 1012 煙霧
15 09:00 2 2000m 28 84 1012 煙霧
15 08:30 南南西 1 2000m 27 89 1011 煙霧
15 08:00 西南西 2 2000m 27 84 1011 煙霧
15 07:30 南南西 2 2000m 27 84 1011 煙霧
15 07:00 南西 1 2000m 26 89 1011 煙霧
15 06:30 南西 1 2000m 26 89 1011 煙霧
15 06:00 南南西 2 3000m 27 89 1010 煙霧
15 05:30 南西 1 3000m 27 89 1010 煙霧
15 05:00 南南西 2 3000m 27 89 1010 煙霧
15 04:30 1 3000m 27 89 1010 煙霧
15 04:00 南西 1 3000m 27 89 1010 煙霧
15 03:30 西 1 3000m 27 89 1010 煙霧
15 03:00 南西 1 3000m 27 89 1010 煙霧
15 02:30 南西 1 3000m 27 89 1010 煙霧
15 02:00 2 3000m 28 89 1010 煙霧
15 01:30 2 3000m 28 89 1010 煙霧
15 01:00 南南西 1 3000m 28 89 1010 煙霧
15 00:30 西南西 1 3000m 28 89 1011 煙霧
15 00:00 西北西 1 3000m 29 84 1011 煙霧
14 23:30 西 1 3000m 29 84 1011 煙霧
WBSB 161430Z 15002KT 3000 HZ FEW015 BKN280 28/22 Q1010 NOSIG
WBSB 161400Z 20001KT 3000 HZ FEW015 BKN280 28/22 Q1010 NOSIG
WBSB 161330Z 24001KT 3000 HZ FEW015 BKN280 28/23 Q1010 NOSIG
WBSB 161300Z 26001KT 3000 HZ FEW015 BKN280 29/23 Q1010 NOSIG
WBSB 161230Z 30002KT 3000 HZ FEW015 BKN280 29/23 Q1009 NOSIG
WBSB 161200Z 24001KT 3000 HZ FEW015 BKN280 29/23 Q1009 NOSIG
WBSB 161130Z 34001KT 3000 HZ FEW015 BKN300 29/22 Q1009 NOSIG
WBSB 161100Z 33002KT 3000 HZ FEW016 BKN300 30/23 Q1008 NOSIG
WBSB 161030Z 35001KT 3000 HZ FEW016 BKN300 30/25 Q1008 NOSIG
WBSB 161000Z 31004KT 3000 HZ FEW016 BKN300 30/23 Q1008 NOSIG
WBSB 160930Z 31004KT 3000 HZ FEW016 BKN300 31/23 Q1007 NOSIG
WBSB 160900Z 35005KT 3000 HZ FEW017 BKN300 32/23 Q1007 NOSIG
WBSB 160830Z 34005KT 4000 HZ FEW017 BKN300 32/22 Q1007 NOSIG
WBSB 160800Z 30006KT 4000 HZ FEW017 BKN300 33/21 Q1007 NOSIG
WBSB 160730Z 30006KT 4000 HZ FEW017 BKN300 33/22 Q1007 NOSIG
WBSB 160700Z 20004KT 4000 HZ FEW017 BKN300 34/21 Q1007 NOSIG
WBSB 160630Z 26005KT 4000 HZ FEW017 BKN300 34/22 Q1008 NOSIG
WBSB 160600Z 25003KT 4000 HZ FEW017 BKN300 35/22 Q1008 NOSIG
WBSB 160530Z 26004KT 4000 HZ FEW017 BKN280 34/23 Q1008 NOSIG
WBSB 160500Z 27004KT 3000 HZ FEW016 BKN280 34/18 Q1009 NOSIG
WBSB 160430Z 22005KT 3000 HZ FEW016 BKN280 34/20 Q1010 NOSIG
WBSB 160400Z 19005KT 2000 HZ FEW016 BKN270 33/22 Q1010 NOSIG
WBSB 160330Z 21004KT 2000 HZ FEW016 BKN270 31/25 Q1011 NOSIG
WBSB 160300Z 15004KT 2000 HZ FEW016 BKN270 31/26 Q1011 NOSIG
WBSB 160230Z 21004KT 2000 HZ FEW016 BKN270 30/26 Q1011 NOSIG
WBSB 160200Z 17004KT 2000 HZ FEW015 BKN270 29/25 Q1011 NOSIG
WBSB 160130Z 18005KT 2000 HZ FEW015 BKN270 28/25 Q1011 NOSIG
WBSB 160100Z 19005KT 1500 HZ FEW015 BKN270 27/25 Q1011 TEMPO 1000 HZ
WBSB 160030Z 18004KT 1000 HZ FEW015 BKN270 26/25 Q1011 TEMPO 1000 HZ
WBSB 160000Z 20004KT 1000 HZ FEW015 BKN280 26/25 Q1011 TEMPO 1000 HZ
WBSB 152330Z 21004KT 1000 HZ FEW015 BKN280 25/24 Q1011 TEMPO 1000 HZ
WBSB 152300Z 22003KT 1000 HZ FEW015 BKN280 25/25 Q1011 TEMPO 1000 HZ
WBSB 152230Z 22003KT 1000 HZ FEW015 BKN280 26/26 Q1010 TEMPO 1000 HZ
WBSB 152200Z 25001KT 2000 HZ FEW015 BKN280 26/26 Q1010 NOSIG
WBSB 152130Z 23002KT 2000 HZ FEW015 BKN280 26/26 Q1010 NOSIG
WBSB 152100Z 23001KT 2000 HZ FEW015 BKN280 27/26 NOSIG
WBSB 152030Z 25001KT 2000 HZ FEW015 BKN280 27/26 Q1010 NOSIG
WBSB 152000Z 21002KT 2000 HZ FEW015 BKN280 27/26 Q1010 NOSIG
WBSB 151930Z 20004KT 2000 HZ FEW015 BKN280 27/26 Q1010 NOSIG
WBSB 151900Z 21003KT 2000 HZ FEW015 BKN280 27/26 Q1010 NOSIG
WBSB 151830Z 25002KT 2000 HZ FEW015 BKN280 27/25 Q1010 NOSIG
WBSB 151800Z 22002KT 2000 HZ FEW015 BKN280 27/25 Q1010 NOSIG
WBSB 151730Z 22002KT 2000 HZ FEW015 BKN280 28/26 Q1010 NOSIG
WBSB 151700Z 26001KT 2000 HZ FEW015 BKN280 28/26 Q1011 NOSIG
WBSB 151630Z 23001KT 2000 HZ FEW015 BKN280 28/26 Q1011 NOSIG
WBSB 151600Z 25002KT 2000 HZ FEW015 BKN280 28/26 Q1011 NOSIG
WBSB 151530Z 22002KT 2000 HZ FEW015 BKN270 28/26 Q1011 NOSIG
WBSB 151500Z 25002KT 2000 HZ FEW015 BKN270 29/26 Q1011 NOSIG
WBSB 151430Z 22001KT 2000 HZ FEW015 BKN270 29/26 Q1011 NOSIG
WBSB 151400Z 22002KT 2000 HZ FEW015 BKN270 29/26 Q1011 NOSIG
WBSB 151330Z 23001KT 2000 HZ FEW015 BKN270 29/26 Q1011 NOSIG
WBSB 151300Z 23001KT 2000 HZ FEW016 BKN270 29/25 Q1011 NOSIG
WBSB 151230Z 23001KT 2000 HZ FEW016 BKN270 29/25 Q1010 NOSIG
WBSB 151200Z 24001KT 2000 HZ FEW016 BKN270 29/25 Q1010 NOSIG
WBSB 151130Z 26001KT 2000 HZ FEW016 BKN270 29/25 Q1010 NOSIG
WBSB 151100Z 27001KT 2000 HZ FEW016 BKN270 29/25 Q1009 NOSIG
WBSB 151030Z 27003KT 2000 HZ FEW016 BKN270 30/25 Q1009 NOSIG
WBSB 151000Z 27005KT 2000 HZ FEW016 BKN270 30/25 Q1009 NOSIG
WBSB 150930Z 27005KT 2000 HZ FEW016 BKN270 31/24 Q1008 NOSIG
WBSB 150900Z 26006KT 2000 HZ FEW016 BKN270 31/24 Q1008 NOSIG
WBSB 150830Z 25006KT 2000 HZ FEW016 BKN270 31/25 Q1008 NOSIG
WBSB 150800Z 25005KT 2000 HZ FEW016 BKN270 32/25 Q1008 NOSIG
WBSB 150730Z 26006KT 2000 HZ FEW016 BKN270 32/24 Q1008 NOSIG
WBSB 150700Z 26006KT 2000 HZ FEW016 BKN270 32/24 Q1008 NOSIG
WBSB 150630Z 22005KT 2000 HZ FEW016 BKN270 33/25 Q1008 NOSIG
WBSB 150600Z 11004KT 2000 HZ FEW016 BKN270 34/25 Q1008 NOSIG
WBSB 150530Z 32004KT 2000 HZ FEW016 BKN270 32/24 Q1009 NOSIG
WBSB 150500Z 14005KT 2000 HZ FEW016 BKN270 32/25 Q1009 NOSIG
WBSB 150430Z 18004KT 2000 HZ FEW016 BKN270 32/24 Q1010 NOSIG
WBSB 150400Z 22004KT 2000 HZ FEW016 BKN270 32/24 Q1010 NOSIG
WBSB 150330Z 27003KT 2000 HZ FEW016 SCT140 BKN270 31/25 Q1011 NOSIG
WBSB 150300Z 21004KT 2000 HZ FEW016 SCT140 BKN270 31/25 Q1011 NOSIG
WBSB 150230Z 21005KT 2000 HZ FEW015 SCT140 BKN270 31/26 Q1011 NOSIG
WBSB 150200Z 22003KT 2000 HZ FEW015 SCT140 BKN270 29/25 Q1012 NOSIG
WBSB 150130Z 23002KT 2000 HZ FEW015 SCT140 BKN270 28/26 Q1012 NOSIG
WBSB 150100Z 19003KT 2000 HZ FEW015 SCT140 BKN270 28/25 Q1012 NOSIG
WBSB 150030Z 21002KT 2000 HZ FEW015 SCT140 BKN270 27/25 Q1011 NOSIG
WBSB 150000Z 24003KT 2000 HZ FEW015 SCT140 BKN270 27/24 Q1011 NOSIG
WBSB 142330Z 20003KT 2000 HZ FEW015 SCT140 BKN270 27/24 Q1011 NOSIG
WBSB 142300Z 22002KT 2000 HZ FEW015 BKN270 26/24 Q1011 NOSIG
WBSB 142230Z 22002KT 2000 HZ FEW015 BKN270 26/24 Q1011 NOSIG
WBSB 142200Z 21003KT 3000 HZ FEW015 BKN270 27/25 Q1010 NOSIG
WBSB 142130Z 22002KT 3000 HZ FEW015 BKN270 27/25 Q1010 NOSIG
WBSB 142100Z 20003KT 3000 HZ FEW015 BKN270 27/25 Q1010 NOSIG
WBSB 142030Z 19002KT 3000 HZ FEW015 BKN270 27/25 Q1010 NOSIG
WBSB 142000Z 23001KT 3000 HZ FEW015 BKN270 27/25 Q1010 NOSIG
WBSB 141930Z 27002KT 3000 HZ FEW015 BKN270 27/25 Q1010 NOSIG
WBSB 141900Z 23001KT 3000 HZ FEW015 BKN270 27/25 Q1010 NOSIG
WBSB 141830Z 23002KT 3000 HZ FEW015 BKN270 27/25 Q1010 NOSIG
WBSB 141800Z 19004KT 3000 HZ FEW015 BKN270 28/26 Q1010 NOSIG
WBSB 141730Z 17003KT 3000 HZ FEW015 BKN270 28/26 Q1010 NOSIG
WBSB 141700Z 20001KT 3000 HZ FEW015 BKN270 28/26 Q1010 NOSIG
WBSB 141630Z 24001KT 3000 HZ FEW015 BKN270 28/26 Q1011 NOSIG
WBSB 141600Z 29002KT 3000 HZ FEW015 BKN270 29/26 Q1011 NOSIG
WBSB 141530Z 26001KT 3000 HZ FEW015 BKN270 29/26 Q1011 NOSIG